»·PEaware :: ARG1301 KSEA-KPDX

ARG1301 :: KSEA-KPDX

FLIGHT INFORMATION

Flight Status: Arrived
Operator:
Aerolineas Argentinas
More flights by this operator :: More flights under this callsign
Pilot: Luis S. (63)
Aircraft: BOEING 737-800
(B738)
More flights by this aircraft type
Origin: KSEA Seattle-Tacoma Intl
United States
Destination: KPDX Portland Intl
United States
More flights between these airports :: More routes between these airports
Route: +SEA6 BUWZO KRATR KRATR2
File this flight plan on PilotEdge
Remarks:
Altitude:
(Current/Filed)
17,000ft
Speed:
(Current/Filed)
280kts
Departed: 17-Jul-18 09:41 AM
Arrived: 17-Jul-18 10:15 AM
Distance/Time
Traveled:
112nm/0:34
Distance/Time
To Go:
Arrived

Flight Plot

Page will automatically refresh every two minutes.

Flight plan parsing failed; only flown route is shown


Map Options




Map Legend


Flown Route
Filed Route
Departure Airport
Arrival Airport
Navaid (VOR, NDB)
Fix

Horizontal Profiles

Position Reports

Time Latitude Longitude Heading Altitude Ground
Speed
17-Jul-18 08:47 47.442136 -122.302240 45 442ft 0kts
17-Jul-18 08:48 47.442136 -122.302240 45 442ft 0kts
17-Jul-18 08:49 47.442136 -122.302240 45 442ft 0kts
17-Jul-18 08:50 47.442136 -122.302240 45 442ft 0kts
17-Jul-18 08:51 47.442136 -122.302240 45 442ft 0kts
17-Jul-18 08:52 47.442136 -122.302240 45 442ft 0kts
17-Jul-18 08:53 47.442136 -122.302240 45 442ft 0kts
17-Jul-18 08:54 47.442136 -122.302240 45 442ft 0kts
17-Jul-18 08:55 47.442136 -122.302240 45 442ft 0kts
17-Jul-18 08:56 47.442136 -122.302240 45 442ft 0kts
17-Jul-18 08:57 47.442136 -122.302240 45 442ft 0kts
17-Jul-18 08:58 47.442136 -122.302240 45 442ft 0kts
17-Jul-18 08:59 47.442136 -122.302240 45 442ft 0kts
17-Jul-18 09:00 47.442136 -122.302240 45 442ft 0kts
17-Jul-18 09:01 47.442136 -122.302240 45 442ft 0kts
17-Jul-18 09:02 47.442136 -122.302240 45 442ft 0kts
17-Jul-18 09:03 47.442136 -122.302240 45 442ft 0kts
17-Jul-18 09:04 47.442136 -122.302240 45 442ft 0kts
17-Jul-18 09:05 47.442136 -122.302240 45 442ft 0kts
17-Jul-18 09:06 47.442136 -122.302240 45 442ft 0kts
17-Jul-18 09:07 47.442136 -122.302240 45 442ft 0kts
17-Jul-18 09:08 47.442136 -122.302240 45 442ft 0kts
17-Jul-18 09:09 47.442136 -122.302240 45 442ft 0kts
17-Jul-18 09:10 47.442136 -122.302240 45 442ft 0kts
17-Jul-18 09:11 47.442136 -122.302240 45 442ft 0kts
17-Jul-18 09:12 47.442136 -122.302240 45 442ft 0kts
17-Jul-18 09:13 47.442136 -122.302240 45 442ft 0kts
17-Jul-18 09:14 47.442136 -122.302240 45 442ft 0kts
17-Jul-18 09:15 47.442136 -122.302240 45 442ft 0kts
17-Jul-18 09:16 47.442136 -122.302240 45 442ft 0kts
17-Jul-18 09:17 47.442136 -122.302240 45 442ft 0kts
17-Jul-18 09:18 47.442136 -122.302240 45 442ft 0kts
17-Jul-18 09:19 47.442136 -122.302240 45 442ft 0kts
17-Jul-18 09:20 47.442136 -122.302240 45 442ft 0kts
17-Jul-18 09:21 47.442136 -122.302240 45 442ft 0kts
17-Jul-18 09:22 47.442136 -122.302240 45 442ft 0kts
17-Jul-18 09:23 47.442136 -122.302240 45 442ft 0kts
17-Jul-18 09:24 47.442136 -122.302240 45 442ft 0kts
17-Jul-18 09:25 47.442136 -122.302240 45 442ft 0kts
17-Jul-18 09:26 47.442136 -122.302240 45 442ft 0kts
17-Jul-18 09:27 47.442136 -122.302240 45 442ft 0kts
17-Jul-18 09:28 47.442136 -122.302240 45 442ft 0kts
17-Jul-18 09:29 47.442136 -122.302240 45 442ft 0kts
17-Jul-18 09:30 47.442136 -122.302240 45 442ft 0kts
17-Jul-18 09:31 47.442136 -122.302240 45 442ft 0kts
17-Jul-18 09:32 47.442136 -122.302240 45 442ft 0kts
17-Jul-18 09:33 47.442264 -122.302918 249 442ft 8kts
17-Jul-18 09:34 47.442145 -122.304116 271 442ft 9kts
17-Jul-18 09:35 47.444356 -122.306319 359 442ft 15kts
17-Jul-18 09:36 47.448609 -122.306285 359 442ft 16kts
17-Jul-18 09:37 47.453364 -122.306235 0 442ft 18kts
17-Jul-18 09:38 47.458631 -122.306182 0 442ft 19kts
17-Jul-18 09:39 47.463348 -122.306155 349 442ft 0kts
17-Jul-18 09:40 47.463348 -122.306155 349 442ft 0kts
17-Jul-18 09:41 47.463325 -122.307755 182 442ft 0kts
17-Jul-18 09:42 47.459317 -122.307773 180 442ft 103kts
17-Jul-18 09:43 47.410972 -122.308476 180 2764ft 217kts
17-Jul-18 09:44 47.349354 -122.308821 180 6376ft 227kts
17-Jul-18 09:45 47.285160 -122.307680 179 9239ft 251kts
17-Jul-18 09:46 47.210833 -122.308024 179 11590ft 284kts
17-Jul-18 09:47 47.128850 -122.306557 177 14069ft 300kts
17-Jul-18 09:48 47.046282 -122.307423 179 16310ft 308kts
17-Jul-18 09:49 46.961534 -122.308734 179 16998ft 313kts
17-Jul-18 09:50 46.874183 -122.305906 181 17040ft 318kts
17-Jul-18 09:51 46.785241 -122.302552 179 17004ft 320kts
17-Jul-18 09:52 46.696350 -122.297826 181 16966ft 323kts
17-Jul-18 09:53 46.606907 -122.294130 180 17071ft 321kts
17-Jul-18 09:54 46.517785 -122.288268 179 16901ft 319kts
17-Jul-18 09:55 46.433854 -122.282474 178 15719ft 290kts
17-Jul-18 09:56 46.367776 -122.277003 178 14379ft 284kts
17-Jul-18 09:57 46.288143 -122.272158 180 13149ft 300kts
17-Jul-18 09:58 46.204378 -122.273030 182 13033ft 306kts
17-Jul-18 09:59 46.120745 -122.297997 203 13090ft 307kts
17-Jul-18 10:00 46.029384 -122.356021 204 13001ft 309kts
17-Jul-18 10:01 45.964851 -122.396922 206 12483ft 294kts
17-Jul-18 10:02 45.896105 -122.454659 208 10997ft 275kts
17-Jul-18 10:05 45.680611 -122.405264 169 5989ft 239kts
17-Jul-18 10:06 45.616719 -122.389924 173 5878ft 233kts
17-Jul-18 10:07 45.569058 -122.339191 106 6185ft 233kts
17-Jul-18 10:08 45.555854 -122.260141 101 5564ft 194kts
17-Jul-18 10:09 45.515702 -122.241057 204 4187ft 191kts
17-Jul-18 10:10 45.478788 -122.283761 266 3791ft 180kts
17-Jul-18 10:11 45.496886 -122.346099 298 3704ft 159kts
17-Jul-18 10:12 45.517914 -122.400174 298 2748ft 158kts
17-Jul-18 10:13 45.539744 -122.455374 299 1913ft 158kts
17-Jul-18 10:14 45.561511 -122.509304 295 1005ft 157kts
17-Jul-18 10:15 45.582262 -122.563631 299 141ft 153kts
17-Jul-18 10:16 45.590178 -122.584531 284 33ft 14kts
17-Jul-18 10:17 45.590238 -122.589156 244 33ft 10kts
17-Jul-18 10:18 45.588788 -122.587962 171 33ft 0kts
17-Jul-18 10:19 45.588788 -122.587962 171 33ft 0kts
17-Jul-18 10:20 45.588788 -122.587962 171 33ft 0kts
17-Jul-18 10:21 45.588788 -122.587962 171 33ft 0kts
17-Jul-18 10:22 45.588788 -122.587962 171 33ft 0kts
17-Jul-18 10:23 45.588788 -122.587962 171 33ft 0kts
17-Jul-18 10:24 45.588788 -122.587962 171 33ft 0kts
17-Jul-18 10:25 45.588788 -122.587962 171 33ft 0kts
17-Jul-18 10:26 45.588788 -122.587962 171 33ft 0kts
17-Jul-18 10:27 45.588788 -122.587962 171 33ft 0kts
17-Jul-18 10:28 45.588788 -122.587962 171 33ft 0kts
17-Jul-18 10:29 45.588788 -122.587962 171 33ft 0kts
17-Jul-18 10:30 45.588788 -122.587962 171 33ft 0kts

Navigation Log

Ident Type
Flight plan parsing failed, navigation log unavailable